首页
METAR-TAF:

METAR-TAF

机场 :

Moorhead Municipal Airport

穆爾黑德, 明尼蘇達州, 美国

纬度: 46-50-21N, 经度: 096-39-47W, 海拔: 280米

当前天气观测

该预报发布于10分钟前的21:35 UTC
静风
温度 27°C
湿度 30%
气压 1015 hPa
能見度: 16.1公里
天空无云

METAR: KJKJ 142135Z AUTO 00000KT 10SM CLR 27/08 A2998 RMK AO2

时间: 16:45 (21:45 UTC)


TAF: 丢失

超过4000个机场的气象观测和天气预报(METAR&TAF报告)。

可查询的气象台以黄色和红色小点在地图上表示。

将鼠标移到小点上方,可查看气象台名称。

然后点击查看天气观测和预报。

如需切换地图:点击带黑十字的绿色按钮放大地图;点击带横线的绿色按钮缩小地图;或者点击绿色箭头查看邻近地区的地图。


METAR-TAF: